Time;durP1;ratioP1;P1;durP2;ratioP2;P2;SDS_P1;SDS_P2;PMS_P1;PMS_P2;Temp;Humidity;BMP_temperature;BMP_pressure;BME280_temperature;BME280_humidity;BME280_pressure;Samples;Min_cycle;Max_cycle;Signal;HPM_P1;HPM_P2
2022/08/11 00:01:21;;;;;;;;;;;16.70;99.90;;;;;;4963093;28;20811;-50
2022/08/11 00:03:54;;;;;;;15.68;14.13;;;16.70;99.90;;;;;;4961440;28;19934;-53
2022/08/11 00:06:31;;;;;;;15.20;13.63;;;16.70;99.90;;;;;;4960597;28;20051;-52
2022/08/11 00:08:59;;;;;;;16.30;14.48;;;16.60;99.90;;;;;;4953255;28;20078;-52
2022/08/11 00:11:35;;;;;;;19.02;14.70;;;16.50;99.90;;;;;;4968378;28;20062;-55
2022/08/11 00:14:02;;;;;;;15.25;13.70;;;16.60;99.90;;;;;;4996368;28;20069;-53
2022/08/11 00:16:30;;;;;;;18.08;14.80;;;16.60;99.90;;;;;;4961474;28;20051;-53
2022/08/11 00:18:57;;;;;;;15.18;13.20;;;16.50;99.90;;;;;;4962985;28;20050;-51
2022/08/11 00:21:26;;;;;;;16.10;14.40;;;16.50;99.90;;;;;;4955691;28;20189;-54
2022/08/11 00:23:56;;;;;;;14.95;13.35;;;16.50;99.90;;;;;;4956739;28;20059;-52
2022/08/11 00:26:23;;;;;;;15.95;14.35;;;16.50;99.90;;;;;;4952108;28;20054;-54
2022/08/11 00:28:51;;;;;;;17.10;13.85;;;16.50;99.90;;;;;;4959780;28;20054;-51
2022/08/11 00:31:30;;;;;;;15.02;13.13;;;16.50;99.90;;;;;;4952029;28;20042;-51
2022/08/11 00:33:59;;;;;;;14.50;12.98;;;16.50;99.90;;;;;;4950420;28;20051;-53
2022/08/11 00:36:49;;;;;;;15.10;12.93;;;16.50;99.90;;;;;;4953536;28;20055;-49
2022/08/11 00:39:17;;;;;;;14.90;13.05;;;16.50;99.90;;;;;;4950690;28;20097;-51
2022/08/11 00:42:20;;;;;;;15.13;13.57;;;16.50;99.90;;;;;;4946751;28;20055;-53
2022/08/11 00:45:24;;;;;;;16.85;13.98;;;16.50;99.90;;;;;;4955235;28;20529;-50
2022/08/11 00:47:56;;;;;;;;;;;16.50;99.90;;;;;;4954417;28;20054;-52
2022/08/11 00:51:04;;;;;;;20.88;15.55;;;16.50;99.90;;;;;;4961569;28;19933;-49
2022/08/11 00:53:34;;;;;;;19.75;17.55;;;16.50;99.90;;;;;;4956805;28;20054;-53
2022/08/11 00:56:44;;;;;;;19.75;15.75;;;16.50;99.90;;;;;;4948774;28;20082;-49
2022/08/11 00:59:39;;;;;;;21.13;18.52;;;16.50;99.90;;;;;;4935389;28;20063;-54
2022/08/11 01:02:37;;;;;;;20.95;18.40;;;16.50;99.90;;;;;;5001564;28;20428;-51
2022/08/11 01:05:27;;;;;;;22.08;17.88;;;16.40;99.90;;;;;;5001378;28;20061;-52
2022/08/11 01:08:39;;;;;;;20.73;17.48;;;16.40;99.90;;;;;;5000066;28;20100;-54
2022/08/11 01:11:22;;;;;;;18.95;16.55;;;16.40;99.90;;;;;;4939451;28;20059;-48
2022/08/11 01:14:16;;;;;;;25.27;18.60;;;16.40;99.90;;;;;;4930785;29;20076;-53
2022/08/11 01:17:19;;;;;;;21.48;17.63;;;16.40;99.90;;;;;;4942395;28;20477;-53
2022/08/11 01:20:02;;;;;;;21.45;18.08;;;16.40;99.90;;;;;;4942036;28;20510;-55
2022/08/11 01:23:16;;;;;;;21.13;17.30;;;16.30;99.90;;;;;;4927552;28;20058;-51
2022/08/11 01:26:00;;;;;;;21.90;18.63;;;16.30;99.90;;;;;;4900789;29;20513;-54
2022/08/11 01:28:55;;;;;;;22.17;16.90;;;16.30;99.90;;;;;;4876409;29;20095;-53
2022/08/11 01:32:03;;;;;;;23.08;17.67;;;16.20;99.90;;;;;;4879780;29;20063;-54
2022/08/11 01:35:00;;;;;;;17.90;15.45;;;16.10;99.90;;;;;;4893460;29;20056;-54
2022/08/11 01:37:47;;;;;;;16.58;14.88;;;16.10;99.90;;;;;;4902169;29;20056;-53
2022/08/11 01:40:56;;;;;;;18.98;15.50;;;16.20;99.90;;;;;;4924346;28;20052;-53
2022/08/11 01:46:45;;;;;;;17.30;15.50;;;16.10;99.90;;;;;;4973729;28;20093;-57
2022/08/11 01:49:24;;;;;;;16.83;14.55;;;16.00;99.90;;;;;;4980402;28;20532;-53
2022/08/11 01:52:08;;;;;;;18.90;13.95;;;16.00;99.90;;;;;;4952670;28;20054;-53
2022/08/11 01:54:55;;;;;;;17.00;14.68;;;16.00;99.90;;;;;;4977227;28;20058;-49
2022/08/11 01:57:36;;;;;;;17.05;13.15;;;16.00;99.90;;;;;;4977459;28;20486;-50
2022/08/11 02:00:07;;;;;;;15.07;13.50;;;16.00;99.90;;;;;;4974885;28;20050;-54
2022/08/11 02:03:07;;;;;;;15.10;13.18;;;16.00;99.90;;;;;;4970062;28;20070;-51
2022/08/11 02:05:42;;;;;;;14.10;12.27;;;16.00;99.90;;;;;;4958086;28;20437;-54
2022/08/11 02:08:14;;;;;;;14.15;12.77;;;15.90;99.90;;;;;;4957499;28;20055;-52
2022/08/11 02:13:40;;;;;;;14.00;12.57;;;15.90;99.90;;;;;;5002263;28;20051;-48
2022/08/11 02:16:14;;;;;;;13.60;12.20;;;15.90;99.90;;;;;;4985560;28;20050;-49
2022/08/11 02:24:56;;;;;;;13.15;11.90;;;15.90;99.90;;;;;;4985036;28;19924;-52
2022/08/11 02:27:26;;;;;;;13.65;12.25;;;15.80;99.90;;;;;;4973971;28;20539;-53
2022/08/11 02:30:14;;;;;;;14.50;13.18;;;15.80;99.90;;;;;;5005844;28;20063;-51
2022/08/11 02:33:22;;;;;;;13.02;11.73;;;15.80;99.90;;;;;;4993212;28;20051;-51
2022/08/11 02:35:55;;;;;;;14.32;12.93;;;15.80;99.90;;;;;;4960011;28;20196;-53
2022/08/11 02:38:34;;;;;;;15.45;13.50;;;15.80;99.90;;;;;;4964245;28;20709;-54
2022/08/11 02:44:23;;;;;;;14.13;12.70;;;15.70;99.90;;;;;;4892082;28;20061;-52
2022/08/11 02:47:13;;;;;;;14.85;13.13;;;15.70;99.90;;;;;;4893465;28;20086;-53
2022/08/11 02:49:54;;;;;;;14.50;13.00;;;15.80;99.90;;;;;;4927752;28;20086;-53
2022/08/11 02:52:41;;;;;;;14.07;12.68;;;15.80;99.90;;;;;;4905568;28;20055;-49
2022/08/11 02:55:22;;;;;;;13.77;12.48;;;15.70;99.90;;;;;;4909123;28;20534;-51
2022/08/11 02:58:26;;;;;;;14.30;12.55;;;15.70;99.90;;;;;;4904768;28;20056;-49
2022/08/11 03:01:12;;;;;;;15.15;13.55;;;15.70;99.90;;;;;;4932766;28;20068;-50
2022/08/11 03:03:59;;;;;;;15.15;13.63;;;15.70;99.90;;;;;;4899757;28;20062;-50
2022/08/11 03:07:05;;;;;;;15.77;14.20;;;15.70;99.90;;;;;;4899827;29;20640;-52
2022/08/11 03:09:37;;;;;;;14.23;12.93;;;15.70;99.90;;;;;;4965881;28;20251;-49
2022/08/11 03:18:25;;;;;;;15.70;14.10;;;15.70;99.90;;;;;;4898143;28;20125;-50
2022/08/11 03:21:23;;;;;;;16.08;13.50;;;15.70;99.90;;;;;;4926986;28;20094;-50
2022/08/11 03:24:01;;;;;;;16.35;14.32;;;15.60;99.90;;;;;;4952947;28;20126;-49
2022/08/11 03:26:38;;;;;;;15.65;14.20;;;15.60;99.90;;;;;;5000366;28;20043;-48
2022/08/11 03:29:33;;;;;;;18.60;14.95;;;15.60;99.90;;;;;;4967554;28;20428;-51
2022/08/11 03:32:25;;;;;;;15.13;13.63;;;15.60;99.90;;;;;;4974647;28;20186;-52
2022/08/11 03:34:53;;;;;;;16.17;14.35;;;15.50;99.90;;;;;;4966260;28;20518;-50
2022/08/11 03:37:50;;;;;;;16.73;15.05;;;15.50;99.90;;;;;;4967671;28;20062;-50
2022/08/11 03:43:40;;;;;;;16.95;15.38;;;15.50;99.90;;;;;;4968852;28;20083;-50
2022/08/11 03:46:25;;;;;;;16.25;14.65;;;15.50;99.90;;;;;;4898795;28;20052;-51
2022/08/11 03:49:14;;;;;;;17.45;15.35;;;15.50;99.90;;;;;;4940279;28;20133;-52
2022/08/11 03:52:07;;;;;;;16.33;14.63;;;15.50;99.90;;;;;;4912696;28;20103;-50
2022/08/11 03:54:49;;;;;;;17.60;15.80;;;15.50;99.90;;;;;;4885781;28;20491;-52
2022/08/11 03:57:48;;;;;;;18.35;16.40;;;15.50;99.90;;;;;;4904675;28;20068;-51
2022/08/11 04:00:47;;;;;;;18.23;16.33;;;15.40;99.90;;;;;;4886020;28;20087;-49
2022/08/11 04:03:45;;;;;;;16.90;15.30;;;15.40;99.90;;;;;;4896299;29;20067;-49
2022/08/11 04:06:40;;;;;;;18.95;16.80;;;15.30;99.90;;;;;;4900500;29;20407;-52
2022/08/11 04:09:12;;;;;;;17.90;16.10;;;15.30;99.90;;;;;;4923355;29;20106;-52
2022/08/11 04:12:11;;;;;;;19.45;17.55;;;15.20;99.90;;;;;;4892342;29;20460;-49
2022/08/11 04:17:58;;;;;;;19.27;17.38;;;15.30;99.90;;;;;;4866161;29;20053;-51
2022/08/11 04:21:05;;;;;;;19.10;16.90;;;15.20;99.90;;;;;;4855554;29;20149;-52
2022/08/11 04:24:09;;;;;;;16.70;14.57;;;15.30;99.90;;;;;;4881588;29;20409;-50
2022/08/11 04:26:40;;;;;;;17.58;15.90;;;15.20;99.90;;;;;;4885062;29;20060;-50
2022/08/11 04:29:34;;;;;;;17.98;16.00;;;15.20;99.90;;;;;;4891448;29;20058;-50
2022/08/11 04:32:07;;;;;;;18.75;16.75;;;15.20;99.90;;;;;;4893087;29;20087;-51
2022/08/11 04:35:02;;;;;;;18.85;16.85;;;15.20;99.90;;;;;;4881135;29;20052;-50
2022/08/11 04:37:40;;;;;;;18.88;16.13;;;15.30;99.90;;;;;;4876705;29;20099;-49
2022/08/11 04:40:21;;;;;;;17.50;15.82;;;15.30;99.90;;;;;;4894135;29;20064;-49
2022/08/11 04:43:20;;;;;;;17.50;15.65;;;15.30;99.90;;;;;;4904768;29;20066;-48
2022/08/11 04:46:23;;;;;;;19.70;17.58;;;15.30;99.90;;;;;;4872415;29;20101;-49
2022/08/11 05:02:14;;;;;;;19.73;17.42;;;15.50;99.90;;;;;;4936092;28;20051;-48
2022/08/11 05:05:32;;;;;;;16.30;14.80;;;16.10;99.90;;;;;;4913414;29;20055;-49
2022/08/11 05:08:01;;;;;;;17.65;14.77;;;17.40;99.90;;;;;;4932044;28;20150;-55
2022/08/11 05:11:00;;;;;;;16.45;14.77;;;18.90;99.90;;;;;;4943540;28;20048;-53
2022/08/11 05:37:10;;;;;;;12.95;11.75;;;26.10;99.90;;;;;;4877306;29;20151;-53
2022/08/11 05:56:57;;;;;;;13.82;12.52;;;29.90;95.80;;;;;;4884149;29;20088;-49
2022/08/11 05:59:31;;;;;;;13.65;12.40;;;29.90;95.40;;;;;;4891948;29;20099;-54
2022/08/11 06:02:03;;;;;;;13.05;11.77;;;30.40;95.70;;;;;;4919557;29;20518;-52
2022/08/11 06:04:29;;;;;;;12.48;11.20;;;30.80;94.70;;;;;;4947675;28;20076;-54
2022/08/11 06:07:07;;;;;;;11.98;10.98;;;31.00;95.10;;;;;;5014440;28;20140;-54
2022/08/11 06:09:43;;;;;;;12.80;11.70;;;31.50;93.50;;;;;;5019552;28;20045;-55
2022/08/11 06:12:31;;;;;;;12.25;11.15;;;31.70;92.90;;;;;;4952740;28;20888;-57
2022/08/11 06:15:02;;;;;;;11.55;10.35;;;32.30;93.60;;;;;;4950055;28;20055;-55
2022/08/11 06:17:31;;;;;;;11.98;11.02;;;32.90;92.70;;;;;;4954980;28;20043;-56
2022/08/11 06:20:11;;;;;;;12.10;11.10;;;33.20;91.20;;;;;;4961058;28;20505;-55
2022/08/11 06:22:40;;;;;;;11.77;10.77;;;33.40;91.00;;;;;;5005607;28;20058;-57
2022/08/11 06:25:07;;;;;;;10.60;9.73;;;33.80;91.30;;;;;;4961498;28;20055;-56
2022/08/11 06:27:37;;;;;;;11.35;10.35;;;34.10;90.50;;;;;;4950800;28;20062;-56
2022/08/11 06:30:12;;;;;;;11.80;10.70;;;34.50;89.70;;;;;;4961000;28;20046;-56
2022/08/11 06:32:43;;;;;;;10.85;9.88;;;34.50;89.10;;;;;;4959410;28;20089;-57
2022/08/11 06:35:34;;;;;;;10.75;9.75;;;34.60;88.80;;;;;;4961091;28;20054;-55
2022/08/11 06:38:14;;;;;;;10.65;9.73;;;35.10;87.60;;;;;;4952833;28;20059;-54
2022/08/11 06:43:53;;;;;;;10.45;9.57;;;34.80;87.00;;;;;;4960369;28;20108;-54
2022/08/11 06:46:30;;;;;;;;;;;34.20;86.60;;;;;;4960641;28;20090;-54
2022/08/11 06:48:59;;;;;;;10.20;9.30;;;33.50;87.30;;;;;;4961352;28;19930;-55
2022/08/11 06:51:27;;;;;;;9.10;8.32;;;33.60;88.30;;;;;;4964630;28;20116;-55
2022/08/11 06:53:59;;;;;;;9.80;8.90;;;34.30;87.80;;;;;;4962283;28;20051;-55
2022/08/11 07:02:29;;;;;;;9.32;8.52;;;34.00;87.50;;;;;;4954306;28;20137;-54
2022/08/11 07:05:07;;;;;;;9.10;8.30;;;34.10;87.50;;;;;;4963770;28;20051;-56
2022/08/11 07:17:29;;;;;;;21.13;8.50;;;31.90;88.90;;;;;;4939725;28;20051;-57
2022/08/11 07:31:41;;;;;;;8.13;7.32;;;30.50;91.30;;;;;;4939666;29;20123;-56
2022/08/11 07:34:21;;;;;;;8.85;7.70;;;30.20;91.00;;;;;;4940473;28;20058;-56
2022/08/11 07:37:01;;;;;;;9.15;8.13;;;30.00;90.60;;;;;;4942755;28;20071;-57
2022/08/11 07:39:31;;;;;;;8.05;7.35;;;29.70;91.10;;;;;;4941226;29;20635;-57
2022/08/11 07:42:03;;;;;;;7.90;7.20;;;29.70;91.30;;;;;;4942719;28;20758;-56
2022/08/11 07:44:30;;;;;;;9.05;8.13;;;29.20;91.70;;;;;;4928087;29;20066;-56
2022/08/11 07:52:33;;;;;;;11.00;7.75;;;28.90;92.70;;;;;;4958212;28;20112;-57
2022/08/11 07:55:20;;;;;;;8.00;7.22;;;28.90;92.20;;;;;;4979737;28;20098;-57
2022/08/11 08:20:10;;;;;;;8.25;5.70;;;28.30;92.60;;;;;;4952697;28;20190;-57
2022/08/11 08:22:37;;;;;;;8.90;5.00;;;28.20;92.50;;;;;;4949072;28;20065;-59
2022/08/11 08:25:04;;;;;;;6.25;4.88;;;28.20;93.20;;;;;;4962768;28;20050;-57
2022/08/11 08:27:32;;;;;;;5.00;4.50;;;28.40;92.70;;;;;;4962510;28;20078;-57
2022/08/11 08:32:43;;;;;;;5.53;4.90;;;28.40;92.00;;;;;;4945389;28;20112;-57
2022/08/11 08:35:11;;;;;;;5.72;4.18;;;28.50;92.40;;;;;;4958342;28;20042;-57
2022/08/11 08:37:38;;;;;;;8.60;5.10;;;28.50;92.10;;;;;;4960764;28;20076;-57
2022/08/11 08:40:07;;;;;;;7.75;4.22;;;28.70;92.20;;;;;;4952641;28;20055;-58
2022/08/11 08:42:40;;;;;;;6.88;4.18;;;28.60;92.50;;;;;;4951807;28;20106;-56
2022/08/11 08:45:10;;;;;;;6.85;4.75;;;28.60;92.60;;;;;;4952274;28;20093;-57
2022/08/11 08:47:41;;;;;;;5.18;4.22;;;28.60;92.10;;;;;;4960250;28;20046;-57
2022/08/11 08:50:20;;;;;;;8.55;3.97;;;28.50;92.00;;;;;;4962662;28;20050;-57
2022/08/11 08:53:03;;;;;;;5.32;4.07;;;28.60;92.60;;;;;;4951988;28;20067;-58
2022/08/11 08:55:30;;;;;;;4.80;4.03;;;28.60;91.90;;;;;;4961566;28;20089;-57
2022/08/11 08:57:59;;;;;;;5.93;3.63;;;28.60;91.60;;;;;;4963380;28;20539;-58
2022/08/11 09:00:42;;;;;;;4.78;3.30;;;28.60;91.90;;;;;;4955397;28;20416;-57
2022/08/11 09:03:09;;;;;;;4.70;3.60;;;28.70;92.40;;;;;;4960976;28;20062;-58
2022/08/11 09:05:36;;;;;;;4.90;3.40;;;28.70;92.10;;;;;;4959773;28;20517;-59
2022/08/11 09:08:03;;;;;;;6.03;3.05;;;28.90;91.70;;;;;;4961164;28;20042;-58
2022/08/11 09:10:30;;;;;;;5.68;2.83;;;28.80;91.60;;;;;;4951382;28;20065;-58
2022/08/11 09:12:58;;;;;;;5.25;3.13;;;28.70;91.30;;;;;;4965436;28;20151;-59
2022/08/11 09:15:24;;;;;;;7.05;2.92;;;28.60;91.70;;;;;;4972677;28;20056;-58
2022/08/11 09:18:04;;;;;;;3.30;2.28;;;28.70;92.00;;;;;;4986880;28;20044;-58
2022/08/11 09:20:33;;;;;;;4.40;2.97;;;29.00;91.00;;;;;;4935608;28;20587;-59
2022/08/11 09:28:52;;;;;;;6.15;2.88;;;29.30;90.10;;;;;;4961339;28;20071;-60
2022/08/11 09:31:21;;;;;;;5.05;2.58;;;29.10;90.20;;;;;;4958128;28;20059;-58
2022/08/11 09:33:50;;;;;;;6.00;3.10;;;29.30;90.10;;;;;;4959284;28;20106;-59
2022/08/11 09:41:50;;;;;;;6.10;2.70;;;29.40;88.50;;;;;;4956510;28;20133;-58
2022/08/11 09:47:04;;;;;;;4.45;2.65;;;29.50;89.50;;;;;;4956708;28;20125;-59
2022/08/11 09:49:31;;;;;;;5.63;2.58;;;29.60;88.50;;;;;;4971514;28;20049;-59
2022/08/11 09:51:59;;;;;;;5.97;2.70;;;29.60;87.60;;;;;;4959075;28;20063;-59
2022/08/11 09:54:26;;;;;;;3.42;2.55;;;29.60;88.90;;;;;;4959431;28;20721;-58
2022/08/11 09:59:39;;;;;;;4.65;2.25;;;29.60;87.40;;;;;;4960601;28;20102;-59
2022/08/11 10:02:09;;;;;;;3.85;2.92;;;29.70;88.60;;;;;;4959594;28;20054;-59
2022/08/11 10:04:50;;;;;;;4.40;2.55;;;29.70;87.10;;;;;;4959622;28;20050;-59
2022/08/11 10:07:19;;;;;;;14.02;4.25;;;29.80;86.20;;;;;;4960565;28;20094;-59
2022/08/11 10:10:01;;;;;;;7.53;2.90;;;29.70;87.00;;;;;;4959734;28;20054;-59
2022/08/11 10:12:37;;;;;;;5.18;2.55;;;29.80;86.40;;;;;;4955525;28;20090;-59
2022/08/11 10:21:40;;;;;;;5.43;2.40;;;29.90;85.90;;;;;;4951242;28;20131;-58
2022/08/11 10:26:59;;;;;;;4.00;2.72;;;30.10;85.80;;;;;;4979043;28;20574;-59
2022/08/11 10:35:17;;;;;;;4.47;2.42;;;30.20;83.30;;;;;;4965191;28;20125;-58
2022/08/11 10:37:45;;;;;;;3.58;2.33;;;30.20;83.80;;;;;;4988015;28;20507;-58
2022/08/11 10:40:16;;;;;;;4.50;2.30;;;30.10;83.50;;;;;;4986353;28;20093;-58
2022/08/11 10:43:02;;;;;;;7.88;2.50;;;30.10;83.30;;;;;;4970443;28;20097;-58
2022/08/11 10:48:21;;;;;;;3.50;2.40;;;30.20;84.50;;;;;;4984434;28;20137;-59
2022/08/11 10:59:08;;;;;;;3.47;2.50;;;30.40;84.50;;;;;;4978265;28;20050;-59
2022/08/11 11:01:42;;;;;;;3.50;2.60;;;30.40;83.50;;;;;;4992099;28;20050;-58
2022/08/11 11:04:27;;;;;;;3.53;2.13;;;30.40;82.50;;;;;;4954113;28;20085;-59
2022/08/11 11:07:15;;;;;;;5.65;2.60;;;30.30;81.80;;;;;;4961452;28;20050;-58
2022/08/11 11:09:50;;;;;;;4.50;2.85;;;30.20;81.70;;;;;;4960047;28;20137;-61
2022/08/11 11:18:34;;;;;;;5.15;2.22;;;30.00;82.50;;;;;;4952877;28;20134;-58
2022/08/11 11:21:18;;;;;;;4.70;2.60;;;30.20;81.20;;;;;;4960293;28;20050;-58
2022/08/11 11:24:10;;;;;;;4.68;2.42;;;30.20;80.00;;;;;;4959184;28;20126;-59
2022/08/11 11:26:49;;;;;;;7.10;3.15;;;30.20;81.50;;;;;;4957826;28;20046;-58
2022/08/11 11:29:31;;;;;;;3.45;2.80;;;30.20;80.90;;;;;;4959437;28;20505;-58
2022/08/11 11:32:16;;;;;;;;;;;30.30;80.60;;;;;;4963759;28;20066;-58
2022/08/11 11:35:10;;;;;;;5.05;2.28;;;30.30;80.70;;;;;;4957896;28;19933;-59
2022/08/11 11:37:45;;;;;;;3.63;2.10;;;30.50;81.60;;;;;;4961279;28;20063;-60
2022/08/11 11:40:14;;;;;;;4.28;2.47;;;30.50;81.00;;;;;;4959826;28;20501;-59
2022/08/11 11:43:10;;;;;;;3.85;2.20;;;30.60;81.70;;;;;;4990933;28;20079;-59
2022/08/11 11:45:39;;;;;;;3.58;2.33;;;30.60;81.40;;;;;;4956894;28;20047;-61
2022/08/11 11:48:05;;;;;;;3.72;2.25;;;30.60;79.20;;;;;;4972422;28;20069;-61
2022/08/11 11:50:36;;;;;;;6.75;2.65;;;30.40;79.30;;;;;;4968541;28;20540;-60
2022/08/11 11:53:08;;;;;;;4.63;2.63;;;30.40;79.90;;;;;;4980985;28;20075;-60
2022/08/11 11:55:35;;;;;;;2.35;1.80;;;30.30;80.30;;;;;;4964290;28;20062;-59
2022/08/11 12:03:38;;;;;;;6.32;2.40;;;30.20;79.80;;;;;;4984726;28;20128;-59
2022/08/11 12:06:05;;;;;;;6.95;2.75;;;30.20;80.30;;;;;;4966313;28;20043;-59
2022/08/11 12:08:32;;;;;;;2.97;2.10;;;30.20;78.80;;;;;;4995459;28;20528;-59
2022/08/11 12:13:49;;;;;;;7.00;2.47;;;30.30;79.40;;;;;;4977201;28;20071;-59
2022/08/11 12:16:17;;;;;;;3.90;2.22;;;30.30;79.60;;;;;;4966395;28;20051;-59
2022/08/11 12:18:48;;;;;;;4.93;2.25;;;30.30;79.40;;;;;;4983140;28;20623;-59
2022/08/11 12:21:15;;;;;;;4.85;2.45;;;30.30;79.30;;;;;;4967675;28;20055;-59
2022/08/11 12:29:19;;;;;;;4.22;2.15;;;30.50;80.70;;;;;;4960254;28;20054;-59
2022/08/11 12:31:47;;;;;;;12.10;2.42;;;30.40;79.10;;;;;;4986755;28;20139;-59
2022/08/11 12:34:15;;;;;;;3.85;2.40;;;30.50;79.50;;;;;;5004201;28;20085;-59
2022/08/11 12:37:09;;;;;;;3.83;2.42;;;30.40;80.10;;;;;;4969914;28;20104;-59
2022/08/11 12:45:27;;;;;;;4.43;2.50;;;30.30;79.10;;;;;;4994070;28;20058;-60
2022/08/11 12:54:11;;;;;;;5.68;2.10;;;30.30;78.50;;;;;;4962526;28;20112;-59
2022/08/11 13:05:07;;;;;;;3.25;2.08;;;30.30;76.90;;;;;;4963282;28;20099;-59
2022/08/11 13:07:34;;;;;;;6.82;1.77;;;30.20;77.20;;;;;;4952478;28;20067;-59
2022/08/11 13:10:04;;;;;;;2.30;2.10;;;30.20;78.00;;;;;;4956851;28;20116;-60
2022/08/11 13:12:47;;;;;;;2.75;2.00;;;30.20;77.30;;;;;;4960552;28;20055;-59
2022/08/11 13:15:23;;;;;;;4.07;2.65;;;30.30;78.40;;;;;;4953850;28;20516;-59
2022/08/11 13:17:52;;;;;;;2.67;2.30;;;30.30;78.20;;;;;;4956980;28;20050;-60
2022/08/11 13:20:24;;;;;;;3.47;1.88;;;30.30;78.40;;;;;;4958675;28;20061;-59
2022/08/11 13:22:53;;;;;;;4.03;2.55;;;30.20;77.80;;;;;;4959974;28;20094;-59
2022/08/11 13:25:32;;;;;;;5.93;2.50;;;30.20;78.10;;;;;;4963417;28;20484;-59
2022/08/11 13:28:00;;;;;;;2.75;2.22;;;30.30;79.30;;;;;;4964810;28;20191;-60
2022/08/11 13:33:16;;;;;;;2.60;2.30;;;30.50;78.00;;;;;;4959265;28;20062;-59
2022/08/11 13:35:45;;;;;;;4.63;2.67;;;30.40;77.60;;;;;;4962996;28;20585;-60
2022/08/11 13:38:18;;;;;;;2.92;2.00;;;30.30;77.80;;;;;;4962503;28;20058;-59
2022/08/11 13:40:46;;;;;;;4.65;2.33;;;30.30;79.30;;;;;;4963509;28;20641;-59
2022/08/11 13:43:18;;;;;;;3.35;1.98;;;30.40;78.10;;;;;;4982685;28;20047;-62
2022/08/11 13:45:46;;;;;;;4.10;1.90;;;30.40;77.80;;;;;;4960529;28;20112;-59
2022/08/11 13:48:14;;;;;;;4.88;2.10;;;30.40;79.10;;;;;;4975392;28;20585;-60
2022/08/11 13:53:29;;;;;;;3.90;1.90;;;30.40;77.50;;;;;;4951683;28;20054;-60
2022/08/11 13:56:01;;;;;;;3.58;1.88;;;30.30;77.70;;;;;;4980884;28;20055;-59
2022/08/11 13:58:27;;;;;;;;;;;30.30;77.00;;;;;;4985973;28;20560;-59
2022/08/11 14:00:54;;;;;;;2.53;2.05;;;30.30;76.70;;;;;;4962414;28;19926;-59
2022/08/11 14:03:24;;;;;;;2.25;2.00;;;30.30;76.70;;;;;;4959172;28;20130;-60
2022/08/11 14:05:55;;;;;;;3.15;2.10;;;30.30;76.00;;;;;;4959951;28;20173;-60
2022/08/11 14:08:31;;;;;;;2.90;1.90;;;30.30;76.60;;;;;;4985753;28;20047;-60
2022/08/11 14:13:48;;;;;;;6.07;2.33;;;30.50;77.20;;;;;;4964961;28;20592;-60
2022/08/11 14:16:40;;;;;;;4.75;2.20;;;30.40;77.10;;;;;;4957615;28;20556;-60
2022/08/11 14:19:11;;;;;;;2.42;1.90;;;30.40;78.50;;;;;;4966173;28;20053;-59
2022/08/11 14:22:23;;;;;;;4.32;2.00;;;30.40;77.40;;;;;;5020980;28;20501;-59
2022/08/11 14:24:50;;;;;;;3.17;1.83;;;30.40;76.20;;;;;;5004280;28;20049;-60
2022/08/11 14:27:29;;;;;;;4.88;1.95;;;30.30;76.60;;;;;;4960215;28;20158;-59
2022/08/11 14:29:57;;;;;;;3.17;1.90;;;30.30;77.00;;;;;;4963131;28;20051;-59
2022/08/11 14:32:32;;;;;;;3.55;1.90;;;30.30;76.70;;;;;;4957656;28;20050;-59
2022/08/11 14:35:04;;;;;;;3.97;2.00;;;30.30;77.70;;;;;;4967129;28;20486;-59
2022/08/11 14:37:30;;;;;;;4.93;2.00;;;30.30;77.70;;;;;;4959599;28;20143;-59
2022/08/11 14:39:58;;;;;;;2.20;1.80;;;30.20;76.90;;;;;;4960333;28;20504;-59
2022/08/11 14:48:02;;;;;;;4.75;2.20;;;30.20;75.70;;;;;;4972474;28;20052;-59
2022/08/11 14:50:31;;;;;;;7.07;2.00;;;30.10;77.60;;;;;;4968808;28;20061;-59
2022/08/11 14:53:09;;;;;;;6.25;2.00;;;30.00;76.00;;;;;;4953523;28;20090;-59
2022/08/11 14:58:27;;;;;;;2.88;1.75;;;30.00;76.90;;;;;;4965336;28;20061;-60
2022/08/11 15:00:56;;;;;;;2.83;1.95;;;30.00;76.90;;;;;;4962473;28;20066;-59
2022/08/11 15:03:24;;;;;;;3.88;2.08;;;30.00;76.00;;;;;;4962946;28;20053;-59
2022/08/11 15:05:55;;;;;;;3.42;1.92;;;29.90;75.70;;;;;;4975520;28;20911;-59
2022/08/11 15:08:53;;;;;;;2.22;1.80;;;30.00;75.70;;;;;;4988674;28;20791;-59
2022/08/11 15:12:07;;;;;;;3.80;1.85;;;29.90;76.10;;;;;;4970454;28;20059;-60
2022/08/11 15:13:59;;;;;;;3.47;1.80;;;29.90;75.00;;;;;;4958987;28;20059;-59
2022/08/11 15:19:12;;;;;;;2.10;1.60;;;29.80;75.20;;;;;;4976146;28;20090;-59
2022/08/11 15:24:23;;;;;;;6.55;1.83;;;29.80;76.20;;;;;;4964168;28;20065;-59
2022/08/11 15:37:58;;;;;;;5.25;2.17;;;29.70;77.80;;;;;;4957468;28;20061;-59
2022/08/11 15:46:33;;;;;;;6.28;1.98;;;29.50;78.00;;;;;;5001569;28;20231;-60
2022/08/11 15:49:06;;;;;;;4.05;2.45;;;29.40;76.50;;;;;;4954750;28;20054;-59
2022/08/11 15:51:56;;;;;;;3.72;2.20;;;29.40;78.30;;;;;;4963244;28;20478;-57
2022/08/11 15:54:27;;;;;;;2.28;1.95;;;29.40;78.10;;;;;;4966543;28;20058;-57
2022/08/11 15:56:56;;;;;;;3.90;2.20;;;29.40;78.90;;;;;;4962360;28;20641;-57
2022/08/11 16:05:04;;;;;;;5.70;2.10;;;29.20;78.80;;;;;;4965335;28;20425;-58
2022/08/11 16:07:34;;;;;;;2.33;1.80;;;29.20;79.70;;;;;;4959712;28;20406;-59
2022/08/11 16:10:10;;;;;;;5.90;2.03;;;29.10;78.20;;;;;;4960877;28;20050;-59
2022/08/11 16:18:41;;;;;;;4.50;1.80;;;29.00;79.20;;;;;;4952770;28;20130;-59
2022/08/11 16:21:15;;;;;;;4.68;2.15;;;29.00;79.20;;;;;;4961270;28;20065;-59
2022/08/11 16:23:45;;;;;;;3.78;1.73;;;29.00;79.70;;;;;;4954102;28;20399;-58
2022/08/11 16:26:14;;;;;;;5.40;2.15;;;28.90;80.40;;;;;;4961524;28;20059;-58
2022/08/11 16:28:45;;;;;;;6.93;2.38;;;28.80;80.10;;;;;;4961985;28;20065;-59
2022/08/11 16:31:12;;;;;;;9.02;2.10;;;28.70;81.50;;;;;;4965743;28;20050;-58
2022/08/11 16:33:40;;;;;;;5.28;2.13;;;28.60;82.10;;;;;;4960559;28;20053;-59
2022/08/11 16:38:58;;;;;;;8.48;3.08;;;28.30;83.00;;;;;;4962029;28;20059;-59
2022/08/11 16:47:15;;;;;;;4.47;2.42;;;27.90;84.40;;;;;;4961262;28;20061;-59
2022/08/11 16:49:51;;;;;;;3.65;2.15;;;27.70;84.00;;;;;;4960190;28;20103;-59
2022/08/11 16:52:18;;;;;;;4.78;2.08;;;27.70;83.80;;;;;;4962076;28;20078;-59
2022/08/11 16:54:46;;;;;;;6.00;2.10;;;27.60;83.90;;;;;;4958328;28;20835;-56
2022/08/11 17:00:11;;;;;;;8.85;2.47;;;27.40;85.50;;;;;;4964538;28;20054;-58
2022/08/11 17:14:13;;;;;;;4.13;2.20;;;27.10;86.50;;;;;;4982057;28;20141;-58
2022/08/11 17:16:41;;;;;;;3.67;2.17;;;27.00;86.20;;;;;;4951013;28;20421;-58
2022/08/11 17:19:22;;;;;;;5.28;2.42;;;26.90;86.80;;;;;;4962550;28;20805;-58
2022/08/11 17:24:55;;;;;;;4.60;2.22;;;26.80;87.60;;;;;;4952251;28;20050;-58
2022/08/11 17:27:25;;;;;;;9.18;2.40;;;26.80;87.60;;;;;;4950464;28;20580;-58
2022/08/11 17:29:58;;;;;;;4.97;2.20;;;26.70;88.50;;;;;;4961188;28;20051;-58
2022/08/11 17:35:29;;;;;;;4.30;2.05;;;26.50;89.20;;;;;;4978237;28;20139;-58
2022/08/11 17:38:20;;;;;;;4.53;2.13;;;26.40;89.80;;;;;;4958275;28;20104;-59
2022/08/11 17:49:22;;;;;;;3.92;2.50;;;26.00;90.10;;;;;;4958059;28;20139;-57
2022/08/11 18:00:12;;;;;;;7.88;2.17;;;25.60;89.50;;;;;;4961163;28;20058;-58
2022/08/11 18:05:35;;;;;;;;;;;25.40;89.50;;;;;;4961131;28;20051;-57
